createdAt,value
2022-10-13T00:01:11.012Z,25.60
2022-10-13T00:03:42.183Z,33.08
2022-10-13T00:06:11.631Z,25.15
2022-10-13T00:08:40.857Z,27.05
2022-10-13T00:11:14.204Z,31.02
2022-10-13T00:13:42.665Z,25.83
2022-10-13T00:16:12.587Z,26.05
2022-10-13T00:18:42.529Z,34.33
2022-10-13T00:21:11.826Z,26.83
2022-10-13T00:23:40.336Z,28.00
2022-10-13T00:26:10.837Z,28.52
2022-10-13T00:28:39.778Z,29.60
2022-10-13T00:31:16.789Z,28.60
2022-10-13T00:33:46.185Z,30.42
2022-10-13T00:36:14.170Z,27.80
2022-10-13T00:38:42.039Z,37.25
2022-10-13T00:41:10.004Z,38.17
2022-10-13T00:43:57.846Z,39.92
2022-10-13T00:46:27.396Z,34.10
2022-10-13T00:48:57.750Z,38.97
2022-10-13T00:51:30.494Z,38.08
2022-10-13T00:54:00.405Z,42.38
2022-10-13T00:56:30.019Z,35.17
2022-10-13T00:58:58.893Z,42.55
2022-10-13T01:01:26.850Z,42.08
2022-10-13T01:03:56.546Z,38.13
2022-10-13T01:06:24.681Z,38.97
2022-10-13T01:08:52.719Z,37.97
2022-10-13T01:11:42.158Z,39.35
2022-10-13T01:14:19.562Z,49.72
2022-10-13T01:16:54.144Z,40.92
2022-10-13T01:19:46.862Z,40.55
2022-10-13T01:22:28.203Z,39.72
2022-10-13T01:25:04.020Z,45.25
2022-10-13T01:27:52.802Z,45.03
2022-10-13T01:30:23.862Z,44.50
2022-10-13T01:33:14.029Z,49.20
2022-10-13T01:35:56.764Z,47.70
2022-10-13T01:38:35.028Z,47.08
2022-10-13T01:41:11.157Z,48.30
2022-10-13T01:43:44.231Z,42.38
2022-10-13T01:46:16.645Z,46.58
2022-10-13T01:51:16.766Z,50.95
2022-10-13T01:53:46.576Z,50.08
2022-10-13T01:56:15.509Z,50.50
2022-10-13T01:58:43.477Z,48.05
2022-10-13T02:01:23.535Z,49.10
2022-10-13T02:04:02.361Z,46.92
2022-10-13T02:06:33.828Z,46.70
2022-10-13T02:09:09.509Z,47.15
2022-10-13T02:11:40.049Z,48.60
2022-10-13T02:14:15.833Z,48.28
2022-10-13T02:16:47.093Z,48.70
2022-10-13T02:19:18.199Z,53.35
2022-10-13T02:21:47.000Z,51.97
2022-10-13T02:24:15.142Z,54.05
2022-10-13T02:26:43.486Z,56.47
2022-10-13T02:29:12.997Z,57.38
2022-10-13T02:31:42.390Z,55.78
2022-10-13T02:34:12.222Z,53.83
2022-10-13T02:36:41.021Z,55.67
2022-10-13T02:39:11.309Z,59.30
2022-10-13T02:41:39.656Z,60.30
2022-10-13T02:44:08.089Z,57.15
2022-10-13T02:46:36.146Z,59.97
2022-10-13T02:49:04.116Z,53.88
2022-10-13T02:51:37.505Z,54.42
2022-10-13T02:54:07.973Z,53.47
2022-10-13T02:56:35.838Z,54.25
2022-10-13T02:59:03.742Z,54.20
2022-10-13T03:01:31.697Z,49.17
2022-10-13T03:03:59.650Z,51.25
2022-10-13T03:06:27.628Z,47.95
2022-10-13T03:08:56.845Z,47.17
2022-10-13T03:11:24.711Z,48.67
2022-10-13T03:13:52.657Z,48.78
2022-10-13T03:16:20.634Z,52.38
2022-10-13T03:18:48.508Z,50.65
2022-10-13T03:21:17.051Z,48.85
2022-10-13T03:23:44.993Z,47.53
2022-10-13T03:26:15.541Z,47.03
2022-10-13T03:28:43.505Z,52.13
2022-10-13T03:31:13.709Z,48.65
2022-10-13T03:33:42.010Z,47.50
2022-10-13T03:36:09.965Z,53.28
2022-10-13T03:38:38.093Z,46.05
2022-10-13T03:41:07.282Z,47.60
2022-10-13T03:43:36.799Z,46.47
2022-10-13T03:46:06.997Z,49.90
2022-10-13T03:48:36.490Z,48.78
2022-10-13T03:51:06.472Z,45.80
2022-10-13T03:53:35.007Z,47.50
2022-10-13T03:56:03.260Z,51.40
2022-10-13T03:58:31.867Z,49.80
2022-10-13T04:01:05.907Z,48.05
2022-10-13T04:03:34.939Z,50.35
2022-10-13T04:06:03.409Z,51.30
2022-10-13T04:08:31.963Z,44.08
2022-10-13T04:11:00.410Z,48.42
2022-10-13T04:13:28.311Z,49.35
2022-10-13T04:15:56.185Z,49.05
2022-10-13T04:18:25.409Z,48.67
2022-10-13T04:20:53.294Z,48.70
2022-10-13T04:23:21.255Z,54.15
2022-10-13T04:25:49.150Z,56.22
2022-10-13T04:28:17.118Z,57.20
2022-10-13T04:30:49.309Z,51.35
2022-10-13T04:33:17.546Z,51.80
2022-10-13T04:35:46.765Z,49.67
2022-10-13T04:38:14.645Z,45.95
2022-10-13T04:40:42.499Z,53.03
2022-10-13T04:43:10.390Z,54.53
2022-10-13T04:45:38.334Z,53.92
2022-10-13T04:48:06.535Z,55.45
2022-10-13T04:50:34.433Z,58.03
2022-10-13T04:53:03.666Z,49.95
2022-10-13T04:55:31.635Z,50.72
2022-10-13T04:57:59.528Z,55.22
2022-10-13T05:00:27.530Z,53.70
2022-10-13T05:02:55.491Z,55.35
2022-10-13T05:05:23.432Z,53.58
2022-10-13T05:07:51.295Z,53.63
2022-10-13T05:10:20.773Z,53.88
2022-10-13T05:12:48.631Z,52.50
2022-10-13T05:15:16.642Z,54.40
2022-10-13T05:17:44.839Z,49.85
2022-10-13T05:20:13.295Z,52.05
2022-10-13T05:22:41.161Z,54.70
2022-10-13T05:25:09.466Z,52.85
2022-10-13T05:27:38.739Z,51.35
2022-10-13T05:30:07.489Z,50.20
2022-10-13T05:32:36.591Z,51.38
2022-10-13T05:35:04.864Z,54.00
2022-10-13T05:37:32.766Z,56.55
2022-10-13T05:40:00.609Z,51.55
2022-10-13T05:42:30.750Z,50.75
2022-10-13T05:45:00.377Z,47.00
2022-10-13T05:47:28.354Z,48.58
2022-10-13T05:49:56.473Z,48.13
2022-10-13T05:52:26.141Z,44.47
2022-10-13T05:54:57.417Z,44.50
2022-10-13T05:57:28.506Z,43.45
2022-10-13T06:00:01.084Z,40.63
2022-10-13T06:02:34.944Z,42.35
2022-10-13T06:05:04.095Z,40.10
2022-10-13T06:07:32.310Z,36.85
2022-10-13T06:10:00.669Z,49.30
2022-10-13T06:12:28.529Z,52.42
2022-10-13T06:14:56.419Z,48.40
2022-10-13T06:17:25.704Z,55.63
2022-10-13T06:19:53.537Z,47.00
2022-10-13T06:22:22.291Z,50.80
2022-10-13T06:24:50.380Z,50.40
2022-10-13T06:27:18.265Z,52.95
2022-10-13T06:29:46.334Z,56.47
2022-10-13T06:32:14.172Z,54.47
2022-10-13T06:34:43.354Z,53.25
2022-10-13T06:37:11.250Z,56.03
2022-10-13T06:39:39.109Z,58.88
2022-10-13T06:42:07.021Z,52.33
2022-10-13T06:44:35.255Z,59.88
2022-10-13T06:47:03.617Z,54.22
2022-10-13T06:49:31.478Z,51.42
2022-10-13T06:52:00.817Z,55.13
2022-10-13T06:54:28.717Z,52.30
2022-10-13T06:56:56.565Z,51.58
2022-10-13T06:59:26.396Z,52.60
2022-10-13T07:01:54.511Z,49.30
2022-10-13T07:04:22.975Z,53.25
2022-10-13T07:06:52.655Z,48.28
2022-10-13T07:09:21.993Z,53.17
2022-10-13T07:11:50.213Z,50.88
2022-10-13T07:14:18.069Z,47.42
2022-10-13T07:16:45.921Z,45.75
2022-10-13T07:19:13.851Z,51.08
2022-10-13T07:21:41.917Z,46.88
2022-10-13T07:24:12.746Z,48.40
2022-10-13T07:26:41.986Z,44.45
2022-10-13T07:29:10.274Z,43.88
2022-10-13T07:31:38.200Z,44.00
2022-10-13T07:34:06.712Z,42.67
2022-10-13T07:36:35.491Z,39.85
2022-10-13T07:39:03.999Z,39.08
2022-10-13T07:41:31.861Z,39.97
2022-10-13T07:44:01.066Z,38.83
2022-10-13T07:46:29.835Z,35.50
2022-10-13T07:48:57.901Z,34.75
2022-10-13T07:51:25.814Z,35.03
2022-10-13T07:53:53.724Z,33.13
2022-10-13T07:56:21.671Z,33.70
2022-10-13T07:58:49.566Z,33.78
2022-10-13T08:01:19.359Z,31.30
2022-10-13T08:03:50.250Z,32.42
2022-10-13T08:06:18.790Z,31.40
2022-10-13T08:08:46.929Z,32.53
2022-10-13T08:11:17.234Z,32.33
2022-10-13T08:13:48.834Z,34.97
2022-10-13T08:16:18.393Z,31.33
2022-10-13T08:18:47.006Z,29.13
2022-10-13T08:24:06.446Z,29.17
2022-10-13T08:26:34.454Z,27.73
2022-10-13T08:29:20.879Z,28.48
2022-10-13T08:31:51.757Z,29.20
2022-10-13T08:34:20.313Z,25.70
2022-10-13T08:36:48.820Z,26.42
2022-10-13T08:39:16.743Z,24.42
2022-10-13T08:41:45.307Z,27.30
2022-10-13T08:47:19.218Z,27.63
2022-10-13T08:49:47.533Z,23.55
2022-10-13T08:52:21.054Z,22.70
2022-10-13T08:54:49.753Z,23.35
2022-10-13T08:57:18.757Z,24.92
2022-10-13T08:59:47.682Z,22.77
2022-10-13T09:02:24.824Z,23.40
2022-10-13T09:04:54.390Z,25.75
2022-10-13T09:07:27.515Z,28.60
2022-10-13T09:09:56.303Z,34.90
2022-10-13T09:12:25.809Z,29.83
2022-10-13T09:15:05.717Z,29.30
2022-10-13T09:17:35.670Z,30.00
2022-10-13T09:20:06.158Z,35.60
2022-10-13T09:22:36.604Z,37.97
2022-10-13T09:25:21.252Z,35.65
2022-10-13T09:27:51.484Z,36.78
2022-10-13T09:30:30.012Z,33.85
2022-10-13T09:33:16.288Z,33.88
2022-10-13T09:35:46.636Z,38.47
2022-10-13T09:38:17.068Z,33.47
2022-10-13T09:40:57.091Z,32.40
2022-10-13T09:43:30.664Z,32.17
2022-10-13T09:45:59.565Z,32.42
2022-10-13T09:48:31.183Z,31.27
2022-10-13T09:50:59.657Z,30.77
2022-10-13T09:53:32.189Z,33.42
2022-10-13T09:56:18.281Z,33.08
2022-10-13T09:58:51.690Z,33.53
2022-10-13T10:01:26.586Z,32.65
2022-10-13T10:03:58.115Z,32.30
2022-10-13T10:06:27.877Z,32.35
2022-10-13T10:09:04.347Z,29.65
2022-10-13T10:11:36.202Z,30.63
2022-10-13T10:14:16.481Z,31.98
2022-10-13T10:16:47.881Z,28.70
2022-10-13T10:19:22.308Z,42.03
2022-10-13T10:21:56.944Z,29.15
2022-10-13T10:24:29.622Z,30.45
2022-10-13T10:27:01.096Z,31.95
2022-10-13T10:29:42.066Z,30.80
2022-10-13T10:32:27.506Z,27.08
2022-10-13T10:35:00.801Z,32.60
2022-10-13T10:37:51.233Z,25.73
2022-10-13T10:40:32.254Z,31.52
2022-10-13T10:43:27.176Z,26.10
2022-10-13T10:45:57.913Z,32.28
2022-10-13T10:48:29.390Z,25.90
2022-10-13T10:50:59.002Z,23.93
2022-10-13T10:53:35.134Z,25.77
2022-10-13T10:56:10.290Z,26.55
2022-10-13T10:58:44.930Z,29.52
2022-10-13T11:01:28.369Z,23.77
2022-10-13T11:04:02.178Z,24.42
2022-10-13T11:06:38.652Z,27.75
2022-10-13T11:09:07.492Z,23.73
2022-10-13T11:11:40.427Z,23.52
2022-10-13T11:14:31.920Z,22.30
2022-10-13T11:17:28.737Z,20.27
2022-10-13T11:19:56.951Z,23.95
2022-10-13T11:22:28.331Z,23.58
2022-10-13T11:25:24.955Z,25.38
2022-10-13T11:27:54.227Z,23.30
2022-10-13T11:30:44.509Z,22.13
2022-10-13T11:33:53.064Z,19.17
2022-10-13T11:36:51.111Z,21.52
2022-10-13T11:39:53.109Z,23.02
2022-10-13T11:42:50.432Z,26.80
2022-10-13T11:45:42.937Z,24.63
2022-10-13T11:48:49.790Z,22.95
2022-10-13T11:51:27.236Z,27.17
2022-10-13T11:54:00.648Z,24.90
2022-10-13T11:56:39.400Z,24.08
2022-10-13T11:59:24.336Z,27.50
2022-10-13T12:01:58.751Z,22.55
2022-10-13T12:04:29.164Z,27.27
2022-10-13T12:07:01.439Z,24.05
2022-10-13T12:12:02.439Z,26.17
2022-10-13T12:17:24.712Z,26.38
2022-10-13T12:19:53.090Z,26.80
2022-10-13T12:22:21.054Z,27.90
2022-10-13T12:24:59.641Z,25.60
2022-10-13T12:27:28.534Z,26.33
2022-10-13T12:29:56.675Z,23.85
2022-10-13T12:32:27.847Z,27.10
2022-10-13T12:34:55.941Z,27.67
2022-10-13T12:37:29.620Z,32.42
2022-10-13T12:39:59.134Z,25.13
2022-10-13T12:42:31.567Z,28.27
2022-10-13T12:45:01.382Z,30.42
2022-10-13T12:47:46.802Z,25.88
2022-10-13T12:50:38.191Z,26.38
2022-10-13T12:53:16.430Z,32.15
2022-10-13T12:55:55.217Z,28.33
2022-10-13T12:58:27.018Z,29.30
2022-10-13T13:01:22.339Z,25.67
2022-10-13T13:03:58.970Z,28.17
2022-10-13T13:06:32.017Z,30.30
2022-10-13T13:09:28.431Z,28.13
2022-10-13T13:12:24.507Z,27.02
2022-10-13T13:14:55.208Z,28.30
2022-10-13T13:17:53.335Z,28.70
2022-10-13T13:20:26.889Z,19.48
2022-10-13T13:22:55.180Z,15.45
2022-10-13T13:25:23.441Z,11.05
2022-10-13T13:27:51.854Z,7.47
2022-10-13T13:30:21.973Z,5.35
2022-10-13T13:32:49.980Z,5.05
2022-10-13T13:35:18.457Z,3.45
2022-10-13T13:37:51.007Z,4.53
2022-10-13T13:40:20.997Z,4.20
2022-10-13T13:42:48.997Z,4.28
2022-10-13T13:45:18.410Z,4.47
2022-10-13T13:47:46.793Z,4.78
2022-10-13T13:50:18.662Z,4.95
2022-10-13T13:52:48.317Z,5.40
2022-10-13T13:55:16.427Z,4.30
2022-10-13T13:57:45.264Z,3.67
2022-10-13T14:00:15.381Z,4.13
2022-10-13T14:02:44.005Z,3.50
2022-10-13T14:05:12.437Z,3.95
2022-10-13T14:07:40.665Z,3.72
2022-10-13T14:10:11.589Z,3.22
2022-10-13T14:12:40.023Z,3.28
2022-10-13T14:15:09.101Z,4.15
2022-10-13T14:17:37.022Z,3.65
2022-10-13T14:20:05.584Z,3.15
2022-10-13T14:22:33.495Z,5.68
2022-10-13T14:25:01.364Z,6.20
2022-10-13T14:27:31.167Z,3.53
2022-10-13T14:29:59.031Z,4.53
2022-10-13T14:32:26.943Z,4.30
2022-10-13T14:34:54.846Z,3.78
2022-10-13T14:37:23.884Z,3.13
2022-10-13T14:39:52.941Z,3.05
2022-10-13T14:42:20.814Z,3.53
2022-10-13T14:44:50.019Z,2.70
2022-10-13T14:47:18.186Z,2.72
2022-10-13T14:49:46.165Z,3.67
2022-10-13T14:52:14.071Z,3.40
2022-10-13T14:54:44.843Z,3.03
2022-10-13T14:57:15.783Z,4.30
2022-10-13T14:59:44.401Z,2.55
2022-10-13T15:02:14.013Z,3.38
2022-10-13T15:04:42.134Z,2.88
2022-10-13T15:07:09.989Z,3.40
2022-10-13T15:09:52.375Z,2.05
2022-10-13T15:12:21.811Z,2.75
2022-10-13T15:14:49.906Z,3.38
2022-10-13T15:17:19.146Z,2.92
2022-10-13T15:19:47.048Z,2.60
2022-10-13T15:22:15.131Z,2.85
2022-10-13T15:24:43.390Z,3.50
2022-10-13T15:27:11.298Z,3.15
2022-10-13T15:29:39.183Z,2.33
2022-10-13T15:32:11.275Z,3.33
2022-10-13T15:34:41.091Z,2.55
2022-10-13T15:37:09.130Z,2.70
2022-10-13T15:39:37.235Z,3.03
2022-10-13T15:42:06.250Z,3.28
2022-10-13T15:44:57.453Z,3.22
2022-10-13T15:47:22.515Z,2.38
2022-10-13T15:49:51.781Z,2.47
2022-10-13T15:52:19.991Z,3.92
2022-10-13T15:54:51.261Z,3.58
2022-10-13T15:57:19.211Z,3.00
2022-10-13T15:59:47.115Z,3.13
2022-10-13T16:02:15.002Z,3.67
2022-10-13T16:04:42.849Z,4.07
2022-10-13T16:07:12.071Z,2.88
2022-10-13T16:09:40.254Z,4.43
2022-10-13T16:12:08.385Z,3.45
2022-10-13T16:14:36.322Z,3.85
2022-10-13T16:17:04.450Z,6.38
2022-10-13T16:19:32.338Z,4.82
2022-10-13T16:22:00.239Z,4.75
2022-10-13T16:24:29.853Z,3.13
2022-10-13T16:26:57.723Z,3.88
2022-10-13T16:29:25.623Z,4.28
2022-10-13T16:31:53.539Z,3.70
2022-10-13T16:34:22.809Z,4.05
2022-10-13T16:36:50.739Z,5.03
2022-10-13T16:39:18.693Z,4.85
2022-10-13T16:41:47.954Z,4.53
2022-10-13T16:44:16.821Z,4.35
2022-10-13T16:46:45.002Z,4.05
2022-10-13T16:49:13.459Z,5.35
2022-10-13T16:51:41.366Z,4.15
2022-10-13T16:54:10.646Z,4.03
2022-10-13T16:56:38.579Z,5.70
2022-10-13T16:59:08.668Z,3.72
2022-10-13T17:01:37.582Z,4.28
2022-10-13T17:04:08.600Z,5.30
2022-10-13T17:06:38.810Z,4.45
2022-10-13T17:09:09.572Z,4.72
2022-10-13T17:11:42.883Z,4.40
2022-10-13T17:14:17.235Z,5.00
2022-10-13T17:16:45.683Z,4.97
2022-10-13T17:19:14.232Z,6.00
2022-10-13T17:21:42.469Z,6.45
2022-10-13T17:24:10.972Z,4.78
2022-10-13T17:26:38.879Z,5.55
2022-10-13T17:29:06.901Z,4.57
2022-10-13T17:31:36.336Z,5.22
2022-10-13T17:34:06.184Z,5.03
2022-10-13T17:36:34.561Z,4.95
2022-10-13T17:39:05.906Z,7.93
2022-10-13T17:41:33.963Z,5.90
2022-10-13T17:44:01.903Z,7.68
2022-10-13T17:46:36.687Z,5.97
2022-10-13T17:49:08.544Z,6.97
2022-10-13T17:51:36.548Z,9.73
2022-10-13T17:54:04.870Z,10.07
2022-10-13T17:56:32.898Z,8.55
2022-10-13T17:59:01.846Z,8.07
2022-10-13T18:01:31.586Z,8.68
2022-10-13T18:04:01.737Z,8.02
2022-10-13T18:06:37.955Z,7.22
2022-10-13T18:09:07.542Z,7.55
2022-10-13T18:11:36.116Z,7.05
2022-10-13T18:14:04.151Z,8.40
2022-10-13T18:16:32.535Z,7.10
2022-10-13T18:19:00.622Z,7.28
2022-10-13T18:21:31.850Z,8.30
2022-10-13T18:24:03.456Z,7.65
2022-10-13T18:26:34.989Z,8.70
2022-10-13T18:29:03.769Z,8.27
2022-10-13T18:31:34.181Z,8.95
2022-10-13T18:34:04.987Z,9.15
2022-10-13T18:36:34.657Z,9.35
2022-10-13T18:39:07.388Z,10.57
2022-10-13T18:41:36.687Z,9.98
2022-10-13T18:44:05.150Z,10.50
2022-10-13T18:46:33.642Z,10.93
2022-10-13T18:49:02.739Z,10.73
2022-10-13T18:51:35.984Z,10.38
2022-10-13T18:54:08.803Z,10.60
2022-10-13T18:56:37.613Z,12.57
2022-10-13T18:59:08.124Z,10.90
2022-10-13T19:01:37.905Z,10.52
2022-10-13T19:04:07.499Z,10.32
2022-10-13T19:06:36.002Z,12.88
2022-10-13T19:09:07.255Z,11.07
2022-10-13T19:11:36.511Z,11.65
2022-10-13T19:14:05.582Z,11.13
2022-10-13T19:16:37.198Z,12.95
2022-10-13T19:19:05.331Z,11.57
2022-10-13T19:21:33.610Z,12.30
2022-10-13T19:24:02.543Z,11.10
2022-10-13T19:26:33.771Z,11.98
2022-10-13T19:29:03.694Z,11.50
2022-10-13T19:31:33.399Z,9.55
2022-10-13T19:34:02.174Z,11.05
2022-10-13T19:36:33.278Z,12.85
2022-10-13T19:39:05.965Z,11.30
2022-10-13T19:41:36.243Z,10.57
2022-10-13T19:44:05.488Z,11.68
2022-10-13T19:46:34.315Z,13.02
2022-10-13T19:49:02.264Z,12.98
2022-10-13T19:51:30.102Z,12.05
2022-10-13T19:53:58.008Z,11.80
2022-10-13T19:56:28.226Z,12.88
2022-10-13T19:58:57.425Z,13.65
2022-10-13T20:01:25.480Z,12.43
2022-10-13T20:03:53.676Z,12.65
2022-10-13T20:06:24.771Z,13.98
2022-10-13T20:08:52.633Z,13.43
2022-10-13T20:11:24.109Z,14.35
2022-10-13T20:13:53.085Z,13.23
2022-10-13T20:16:25.682Z,13.85
2022-10-13T20:18:55.133Z,14.80
2022-10-13T20:21:24.402Z,13.48
2022-10-13T20:23:52.750Z,14.65
2022-10-13T20:26:21.739Z,15.00
2022-10-13T20:28:50.778Z,16.38
2022-10-13T20:31:21.487Z,15.27
2022-10-13T20:33:55.090Z,17.40
2022-10-13T20:36:23.138Z,16.33
2022-10-13T20:38:51.427Z,16.42
2022-10-13T20:41:21.238Z,17.58
2022-10-13T20:43:50.267Z,18.30
2022-10-13T20:46:19.902Z,18.80
2022-10-13T20:51:37.441Z,21.33
2022-10-13T20:54:06.212Z,22.40
2022-10-13T20:56:34.758Z,24.40
2022-10-13T20:59:04.190Z,26.08
2022-10-13T21:01:32.383Z,26.13
2022-10-13T21:04:00.280Z,26.85
2022-10-13T21:06:28.410Z,28.15
2022-10-13T21:08:57.871Z,30.70
2022-10-13T21:11:26.412Z,34.83
2022-10-13T21:13:54.679Z,34.60
2022-10-13T21:16:24.710Z,31.92
2022-10-13T21:18:53.239Z,34.10
2022-10-13T21:21:22.916Z,30.35
2022-10-13T21:23:51.293Z,33.88
2022-10-13T21:26:22.367Z,32.30
2022-10-13T21:28:51.628Z,32.17
2022-10-13T21:31:21.449Z,34.45
2022-10-13T21:33:49.967Z,30.38
2022-10-13T21:36:19.971Z,29.73
2022-10-13T21:38:48.831Z,30.55
2022-10-13T21:41:16.859Z,26.75
2022-10-13T21:43:46.133Z,32.33
2022-10-13T21:46:15.762Z,29.58
2022-10-13T21:48:44.229Z,30.30
2022-10-13T21:51:14.202Z,26.88
2022-10-13T21:53:42.842Z,33.58
2022-10-13T21:56:12.429Z,27.88
2022-10-13T21:58:40.729Z,31.30
2022-10-13T22:01:10.252Z,30.83
2022-10-13T22:03:38.221Z,30.80
2022-10-13T22:06:07.659Z,30.50
2022-10-13T22:08:38.999Z,32.25
2022-10-13T22:11:08.618Z,34.10
2022-10-13T22:13:37.229Z,43.00
2022-10-13T22:16:05.986Z,36.20
2022-10-13T22:18:35.387Z,49.25
2022-10-13T22:21:04.045Z,44.90
2022-10-13T22:23:31.906Z,40.55
2022-10-13T22:26:00.312Z,36.75
2022-10-13T22:28:30.323Z,38.75
2022-10-13T22:31:04.655Z,35.72
2022-10-13T22:33:32.791Z,36.47
2022-10-13T22:36:02.346Z,40.70
2022-10-13T22:38:30.187Z,36.10
2022-10-13T22:41:02.808Z,38.72
2022-10-13T22:43:30.870Z,42.90
2022-10-13T22:45:58.803Z,38.47
2022-10-13T22:48:26.714Z,35.65
2022-10-13T22:50:54.648Z,40.05
2022-10-13T22:53:23.899Z,35.80
2022-10-13T22:55:51.779Z,34.13
2022-10-13T22:58:19.643Z,34.40
2022-10-13T23:00:47.562Z,32.65
2022-10-13T23:03:15.831Z,33.92
2022-10-13T23:05:43.907Z,34.55
2022-10-13T23:08:11.824Z,32.03
2022-10-13T23:10:41.107Z,32.95
2022-10-13T23:13:08.983Z,39.05
2022-10-13T23:15:39.034Z,39.08
2022-10-13T23:18:07.053Z,37.78
2022-10-13T23:20:34.927Z,36.65
2022-10-13T23:23:02.822Z,39.42
2022-10-13T23:25:30.711Z,35.97
2022-10-13T23:28:00.680Z,39.92
2022-10-13T23:30:28.682Z,43.85
2022-10-13T23:32:56.870Z,45.33
2022-10-13T23:35:24.746Z,48.33
2022-10-13T23:37:52.984Z,49.72
2022-10-13T23:40:21.366Z,47.85
2022-10-13T23:42:49.247Z,51.35
2022-10-13T23:45:18.623Z,60.42
2022-10-13T23:47:46.526Z,57.38
2022-10-13T23:50:14.379Z,57.58
2022-10-13T23:52:42.246Z,66.72
2022-10-13T23:55:10.523Z,66.45
2022-10-13T23:57:38.385Z,72.28
